CRL902 SBGR-LFMN
Flight info
| Callsign | CRL902 |
|---|---|
| Flight time | N/A |
| Altitude | 33000 |
| Route | VUMEV UZ14 AMBET UN857 FNR UB623 UTRAM UN857 PUGUN/N0481F350 UN857 GUNET N857 ETIBA/N0465F370 N857 DEREV/N0463F360 N857 LZR N871 KORAL UG5 SONSO UN871 NIRAL/N0457F380 UN871 OSDAM UM985 BARPA M985 PIMOS M445 SOPET M985 BCN N870 DIBER UN870 SOSUR DCT LIPSU Z152 LACAZ Q302 ABLAK |
| Aircraft | A339/H-SADE1E2E3GHIJ3J5M1P2RWXY/LB2D1 |
Departure
| Time | N/A |
|---|---|
| Airport | São Paulo/Guarulhos–Governor André Franco Montoro International Airport (SBGR) |
Arrival
| Time | 2026-05-01 15:10 |
|---|---|
| Airport | Nice-Côte d'Azur Airport (LFMN) |
| Time | Latitude | Longitude | Altitude | Speed | Heading |
|---|---|---|---|---|---|
| 2026-05-01 11:41 | 25.34380 | -16.13259 | 35146 ft | 510 kts | 25° |
| 2026-05-01 11:42 | 25.40453 | -16.09250 | 35148 ft | 509 kts | 25° |
| 2026-05-01 11:42 | 25.46541 | -16.05233 | 35171 ft | 512 kts | 25° |
| 2026-05-01 11:42 | 25.49594 | -16.03216 | 35358 ft | 514 kts | 25° |
| 2026-05-01 11:43 | 25.52660 | -16.01186 | 35674 ft | 513 kts | 25° |
| 2026-05-01 11:43 | 25.55748 | -15.99139 | 36052 ft | 510 kts | 25° |
| 2026-05-01 11:43 | 25.58780 | -15.97129 | 36340 ft | 509 kts | 25° |
| 2026-05-01 11:44 | 25.64869 | -15.93094 | 36810 ft | 509 kts | 25° |
| 2026-05-01 11:44 | 25.67888 | -15.91092 | 37046 ft | 509 kts | 25° |
| 2026-05-01 11:44 | 25.70942 | -15.89064 | 37317 ft | 508 kts | 25° |
| 2026-05-01 11:44 | 25.73939 | -15.87076 | 37533 ft | 508 kts | 25° |
| 2026-05-01 11:45 | 25.76981 | -15.85053 | 37749 ft | 507 kts | 25° |
| 2026-05-01 11:45 | 25.80020 | -15.83032 | 37944 ft | 507 kts | 25° |
| 2026-05-01 11:45 | 25.83020 | -15.81037 | 38161 ft | 507 kts | 25° |
| 2026-05-01 11:45 | 25.86051 | -15.79017 | 38399 ft | 506 kts | 25° |
| 2026-05-01 11:46 | 25.89083 | -15.76998 | 38615 ft | 505 kts | 24° |
| 2026-05-01 11:46 | 25.92059 | -15.75015 | 38786 ft | 505 kts | 24° |
| 2026-05-01 11:46 | 25.95086 | -15.72998 | 38945 ft | 506 kts | 24° |
| 2026-05-01 11:46 | 25.98109 | -15.70981 | 39131 ft | 505 kts | 25° |
| 2026-05-01 11:47 | 26.04129 | -15.66960 | 39159 ft | 505 kts | 25° |
| 2026-05-01 11:47 | 26.10177 | -15.62916 | 39160 ft | 505 kts | 25° |
| 2026-05-01 11:48 | 26.16214 | -15.58874 | 39160 ft | 505 kts | 25° |
| 2026-05-01 11:48 | 26.22220 | -15.54847 | 39160 ft | 505 kts | 25° |
| 2026-05-01 11:49 | 26.28227 | -15.50812 | 39163 ft | 504 kts | 25° |
| 2026-05-01 11:49 | 26.34244 | -15.46771 | 39160 ft | 503 kts | 25° |
| 2026-05-01 11:50 | 26.40248 | -15.42730 | 39162 ft | 503 kts | 25° |
| 2026-05-01 11:50 | 26.46234 | -15.38699 | 39162 ft | 503 kts | 25° |
| 2026-05-01 11:51 | 26.52217 | -15.34664 | 39160 ft | 503 kts | 25° |
| 2026-05-01 11:51 | 26.58204 | -15.30624 | 39164 ft | 504 kts | 26° |
| 2026-05-01 11:52 | 26.64193 | -15.26575 | 39162 ft | 503 kts | 26° |
| 2026-05-01 11:52 | 26.70181 | -15.22521 | 39165 ft | 503 kts | 26° |
| 2026-05-01 11:53 | 26.76160 | -15.18464 | 39161 ft | 502 kts | 26° |
| 2026-05-01 11:53 | 26.82090 | -15.14432 | 39165 ft | 501 kts | 26° |
| 2026-05-01 11:54 | 26.88077 | -15.10363 | 39163 ft | 502 kts | 26° |
| 2026-05-01 11:54 | 26.94067 | -15.06288 | 39166 ft | 502 kts | 26° |
| 2026-05-01 11:55 | 27.00008 | -15.02239 | 39167 ft | 502 kts | 26° |
| 2026-05-01 11:55 | 27.05971 | -14.98171 | 39173 ft | 502 kts | 26° |
| 2026-05-01 11:56 | 27.11926 | -14.94106 | 39170 ft | 501 kts | 26° |
| 2026-05-01 11:56 | 27.17883 | -14.90033 | 39173 ft | 500 kts | 26° |
| 2026-05-01 11:57 | 27.23852 | -14.85945 | 39170 ft | 500 kts | 26° |
| 2026-05-01 11:57 | 27.29767 | -14.81889 | 39171 ft | 500 kts | 27° |
| 2026-05-01 11:58 | 27.35689 | -14.77824 | 39168 ft | 499 kts | 27° |
| 2026-05-01 11:59 | 27.44575 | -14.71716 | 39174 ft | 498 kts | 27° |
| 2026-05-01 11:59 | 27.50458 | -14.67663 | 39163 ft | 497 kts | 27° |
| 2026-05-01 12:00 | 27.59286 | -14.61572 | 39168 ft | 496 kts | 27° |
| 2026-05-01 12:01 | 27.68133 | -14.55460 | 39179 ft | 495 kts | 27° |
| 2026-05-01 12:01 | 27.73995 | -14.51401 | 39174 ft | 495 kts | 27° |
| 2026-05-01 12:02 | 27.79863 | -14.47333 | 39175 ft | 495 kts | 27° |
| 2026-05-01 12:02 | 27.85729 | -14.43265 | 39177 ft | 494 kts | 27° |
| 2026-05-01 12:03 | 27.91589 | -14.39194 | 39166 ft | 494 kts | 27° |
| 2026-05-01 12:03 | 27.97437 | -14.35124 | 39177 ft | 495 kts | 27° |
| 2026-05-01 12:04 | 28.03292 | -14.31046 | 39173 ft | 494 kts | 28° |
| 2026-05-01 12:04 | 28.09173 | -14.26942 | 39175 ft | 494 kts | 28° |
| 2026-05-01 12:05 | 28.15026 | -14.22853 | 39174 ft | 494 kts | 28° |
| 2026-05-01 12:05 | 28.23782 | -14.16726 | 39177 ft | 494 kts | 28° |
| 2026-05-01 12:06 | 28.29631 | -14.12629 | 39181 ft | 494 kts | 28° |
| 2026-05-01 12:06 | 28.35478 | -14.08525 | 39187 ft | 494 kts | 28° |
| 2026-05-01 12:07 | 28.41308 | -14.04429 | 39185 ft | 493 kts | 28° |
| 2026-05-01 12:07 | 28.47138 | -14.00329 | 39194 ft | 492 kts | 28° |
| 2026-05-01 12:08 | 28.52944 | -13.96238 | 39189 ft | 492 kts | 28° |
| 2026-05-01 12:08 | 28.58764 | -13.92131 | 39188 ft | 493 kts | 28° |
| 2026-05-01 12:09 | 28.64572 | -13.88024 | 39182 ft | 493 kts | 28° |
| 2026-05-01 12:09 | 28.70402 | -13.83897 | 39178 ft | 492 kts | 28° |
| 2026-05-01 12:10 | 28.79091 | -13.77743 | 39180 ft | 492 kts | 28° |
| 2026-05-01 12:11 | 28.87803 | -13.71560 | 39184 ft | 492 kts | 28° |
| 2026-05-01 12:11 | 28.93614 | -13.67430 | 39186 ft | 492 kts | 28° |
| 2026-05-01 12:12 | 28.99460 | -13.63267 | 39188 ft | 491 kts | 28° |
| 2026-05-01 12:12 | 29.05249 | -13.59142 | 39189 ft | 491 kts | 28° |
| 2026-05-01 12:13 | 29.10949 | -13.54868 | 39187 ft | 493 kts | 33° |
| 2026-05-01 12:13 | 29.16210 | -13.49813 | 39177 ft | 497 kts | 41° |
| 2026-05-01 12:14 | 29.20866 | -13.43961 | 39179 ft | 500 kts | 49° |
| 2026-05-01 12:14 | 29.24942 | -13.37501 | 39170 ft | 502 kts | 52° |
| 2026-05-01 12:15 | 29.28913 | -13.30930 | 39167 ft | 503 kts | 53° |
| 2026-05-01 12:15 | 29.32923 | -13.24320 | 39165 ft | 504 kts | 53° |
| 2026-05-01 12:16 | 29.36915 | -13.17753 | 39165 ft | 504 kts | 53° |
| 2026-05-01 12:16 | 29.40909 | -13.11185 | 39162 ft | 504 kts | 52° |
| 2026-05-01 12:17 | 29.44904 | -13.04609 | 39161 ft | 504 kts | 53° |
| 2026-05-01 12:17 | 29.48912 | -12.97996 | 39161 ft | 504 kts | 53° |
| 2026-05-01 12:18 | 29.52891 | -12.91422 | 39166 ft | 504 kts | 53° |
| 2026-05-01 12:18 | 29.56893 | -12.84799 | 39160 ft | 504 kts | 53° |
| 2026-05-01 12:19 | 29.60866 | -12.78214 | 39161 ft | 504 kts | 53° |
| 2026-05-01 12:19 | 29.64864 | -12.71577 | 39160 ft | 504 kts | 53° |
| 2026-05-01 12:20 | 29.68835 | -12.64976 | 39159 ft | 503 kts | 53° |
| 2026-05-01 12:20 | 29.72795 | -12.58381 | 39166 ft | 503 kts | 53° |
| 2026-05-01 12:21 | 29.76737 | -12.51748 | 39160 ft | 504 kts | 53° |
| 2026-05-01 12:21 | 29.80685 | -12.45058 | 39158 ft | 504 kts | 53° |
| 2026-05-01 12:22 | 29.84607 | -12.38410 | 39161 ft | 505 kts | 53° |
| 2026-05-01 12:22 | 29.88565 | -12.31698 | 39153 ft | 505 kts | 53° |
| 2026-05-01 12:23 | 29.92500 | -12.25018 | 39157 ft | 506 kts | 53° |
| 2026-05-01 12:23 | 29.96432 | -12.18325 | 39154 ft | 505 kts | 53° |
| 2026-05-01 12:24 | 30.00378 | -12.11604 | 39161 ft | 506 kts | 53° |
| 2026-05-01 12:24 | 30.04313 | -12.04926 | 39158 ft | 506 kts | 53° |
| 2026-05-01 12:25 | 30.10236 | -11.94916 | 39156 ft | 505 kts | 53° |
| 2026-05-01 12:26 | 30.14211 | -11.88183 | 39150 ft | 506 kts | 53° |
| 2026-05-01 12:26 | 30.20107 | -11.78167 | 39159 ft | 505 kts | 53° |
| 2026-05-01 12:27 | 30.26028 | -11.68088 | 39156 ft | 504 kts | 53° |
| 2026-05-01 12:28 | 30.31922 | -11.58027 | 39144 ft | 505 kts | 53° |
| 2026-05-01 12:29 | 30.37815 | -11.47944 | 39150 ft | 506 kts | 53° |
| 2026-05-01 12:29 | 30.43695 | -11.37855 | 39143 ft | 505 kts | 53° |
| 2026-05-01 12:30 | 30.49609 | -11.27685 | 39148 ft | 506 kts | 53° |
| 2026-05-01 12:31 | 30.53525 | -11.20935 | 39152 ft | 506 kts | 53° |
| 2026-05-01 12:31 | 30.57431 | -11.14192 | 39145 ft | 504 kts | 53° |
| 2026-05-01 12:32 | 30.61335 | -11.07440 | 39145 ft | 504 kts | 53° |
| 2026-05-01 12:32 | 30.67182 | -10.97311 | 39144 ft | 505 kts | 53° |
| 2026-05-01 12:33 | 30.71090 | -10.90526 | 39138 ft | 505 kts | 53° |
| 2026-05-01 12:33 | 30.74966 | -10.83783 | 39138 ft | 505 kts | 53° |
| 2026-05-01 12:34 | 30.78866 | -10.76984 | 39137 ft | 505 kts | 53° |
| 2026-05-01 12:34 | 30.82759 | -10.70183 | 39138 ft | 505 kts | 53° |
| 2026-05-01 12:35 | 30.86635 | -10.63405 | 39139 ft | 506 kts | 53° |
| 2026-05-01 12:35 | 30.90515 | -10.56616 | 39135 ft | 506 kts | 53° |
| 2026-05-01 12:36 | 30.94413 | -10.49777 | 39129 ft | 505 kts | 53° |
| 2026-05-01 12:36 | 30.98273 | -10.42988 | 39126 ft | 505 kts | 53° |
| 2026-05-01 12:37 | 31.02145 | -10.36167 | 39122 ft | 505 kts | 53° |
| 2026-05-01 12:37 | 31.06033 | -10.29309 | 39127 ft | 506 kts | 54° |
| 2026-05-01 12:38 | 31.09900 | -10.22476 | 39122 ft | 506 kts | 54° |
| 2026-05-01 12:38 | 31.13752 | -10.15654 | 39122 ft | 505 kts | 54° |
| 2026-05-01 12:39 | 31.17627 | -10.08785 | 39112 ft | 506 kts | 54° |
| 2026-05-01 12:39 | 31.21488 | -10.01928 | 39117 ft | 507 kts | 54° |
| 2026-05-01 12:40 | 31.25334 | -9.95085 | 39114 ft | 507 kts | 54° |
| 2026-05-01 12:40 | 31.29205 | -9.88191 | 39119 ft | 507 kts | 54° |
| 2026-05-01 12:41 | 31.33040 | -9.81347 | 39121 ft | 507 kts | 54° |
| 2026-05-01 12:41 | 31.37062 | -9.74591 | 39122 ft | 504 kts | 48° |
| 2026-05-01 12:42 | 31.41798 | -9.68581 | 39122 ft | 499 kts | 38° |
| 2026-05-01 12:42 | 31.47138 | -9.63565 | 39128 ft | 493 kts | 30° |
| 2026-05-01 12:43 | 31.52928 | -9.59306 | 39131 ft | 491 kts | 26° |
| 2026-05-01 12:43 | 31.58787 | -9.55137 | 39127 ft | 492 kts | 26° |
| 2026-05-01 12:44 | 31.64598 | -9.50965 | 39129 ft | 492 kts | 27° |
| 2026-05-01 12:45 | 31.76264 | -9.42521 | 39137 ft | 493 kts | 26° |
| 2026-05-01 12:45 | 31.82080 | -9.38299 | 39135 ft | 493 kts | 27° |
| 2026-05-01 12:46 | 31.87904 | -9.34063 | 39128 ft | 493 kts | 27° |
| 2026-05-01 12:46 | 31.93736 | -9.29816 | 39130 ft | 493 kts | 27° |
| 2026-05-01 12:47 | 31.99563 | -9.25566 | 39133 ft | 493 kts | 27° |
| 2026-05-01 12:47 | 32.05383 | -9.21314 | 39129 ft | 493 kts | 27° |
| 2026-05-01 12:48 | 32.11196 | -9.17061 | 39134 ft | 492 kts | 27° |
| 2026-05-01 12:48 | 32.17023 | -9.12790 | 39130 ft | 492 kts | 27° |
| 2026-05-01 12:49 | 32.22847 | -9.08516 | 39136 ft | 492 kts | 27° |
| 2026-05-01 12:49 | 32.28667 | -9.04237 | 39127 ft | 492 kts | 27° |
| 2026-05-01 12:50 | 32.34454 | -8.99978 | 39129 ft | 493 kts | 27° |
| 2026-05-01 12:50 | 32.40276 | -8.95685 | 39132 ft | 493 kts | 27° |
| 2026-05-01 12:51 | 32.46101 | -8.91385 | 39133 ft | 494 kts | 27° |
| 2026-05-01 12:52 | 32.54852 | -8.84912 | 39132 ft | 493 kts | 27° |
| 2026-05-01 12:52 | 32.63531 | -8.78475 | 39124 ft | 493 kts | 27° |
| 2026-05-01 12:53 | 32.72271 | -8.71979 | 39125 ft | 494 kts | 27° |
| 2026-05-01 12:54 | 32.78070 | -8.67661 | 39131 ft | 494 kts | 27° |
| 2026-05-01 12:54 | 32.86791 | -8.61155 | 39129 ft | 495 kts | 27° |
| 2026-05-01 12:55 | 32.95520 | -8.54627 | 39133 ft | 495 kts | 27° |
| 2026-05-01 12:56 | 33.01364 | -8.50249 | 39131 ft | 495 kts | 27° |
| 2026-05-01 12:56 | 33.07204 | -8.45868 | 39128 ft | 495 kts | 27° |
| 2026-05-01 12:57 | 33.13023 | -8.41494 | 39131 ft | 495 kts | 26° |
| 2026-05-01 12:57 | 33.21712 | -8.34953 | 39130 ft | 495 kts | 27° |
| 2026-05-01 12:58 | 33.27593 | -8.30525 | 39128 ft | 496 kts | 27° |
| 2026-05-01 12:59 | 33.36335 | -8.23935 | 39128 ft | 496 kts | 27° |
| 2026-05-01 12:59 | 33.45067 | -8.17338 | 39123 ft | 496 kts | 27° |
| 2026-05-01 13:00 | 33.53796 | -8.10729 | 39119 ft | 496 kts | 27° |
| 2026-05-01 13:01 | 33.62526 | -8.04103 | 39123 ft | 497 kts | 27° |
| 2026-05-01 13:02 | 33.71281 | -7.97440 | 39122 ft | 497 kts | 27° |
| 2026-05-01 13:07 | 34.35268 | -7.48252 | 39136 ft | 497 kts | 26° |
| 2026-05-01 13:08 | 34.41054 | -7.43760 | 39138 ft | 497 kts | 26° |
| 2026-05-01 13:08 | 34.46885 | -7.39225 | 39138 ft | 498 kts | 26° |
| 2026-05-01 13:09 | 34.52713 | -7.34684 | 39135 ft | 497 kts | 27° |
| 2026-05-01 13:09 | 34.58537 | -7.30138 | 39136 ft | 497 kts | 27° |
| 2026-05-01 13:10 | 34.64320 | -7.25618 | 39135 ft | 497 kts | 27° |
| 2026-05-01 13:10 | 34.70168 | -7.21040 | 39137 ft | 498 kts | 27° |
| 2026-05-01 13:11 | 34.75964 | -7.16494 | 39133 ft | 498 kts | 26° |
| 2026-05-01 13:11 | 34.81827 | -7.11889 | 39132 ft | 498 kts | 26° |
| 2026-05-01 13:12 | 34.87630 | -7.07321 | 39132 ft | 498 kts | 27° |
| 2026-05-01 13:12 | 34.93462 | -7.02724 | 39130 ft | 498 kts | 26° |
| 2026-05-01 13:13 | 34.99266 | -6.98140 | 39128 ft | 498 kts | 26° |
| 2026-05-01 13:13 | 35.05076 | -6.93548 | 39129 ft | 499 kts | 26° |
| 2026-05-01 13:14 | 35.10861 | -6.88965 | 39128 ft | 499 kts | 26° |
| 2026-05-01 13:14 | 35.16696 | -6.84333 | 39127 ft | 498 kts | 26° |
| 2026-05-01 13:15 | 35.22510 | -6.79713 | 39129 ft | 497 kts | 26° |
| 2026-05-01 13:15 | 35.28232 | -6.75018 | 39127 ft | 501 kts | 31° |
| 2026-05-01 13:16 | 35.33545 | -6.69318 | 39128 ft | 509 kts | 40° |
| 2026-05-01 13:16 | 35.38090 | -6.62571 | 39129 ft | 517 kts | 51° |
| 2026-05-01 13:17 | 35.45435 | -6.47363 | 39127 ft | 519 kts | 54° |
| 2026-05-01 13:18 | 35.51137 | -6.36118 | 39127 ft | 518 kts | 53° |
| 2026-05-01 13:18 | 35.54961 | -6.28609 | 39128 ft | 518 kts | 54° |
| 2026-05-01 13:19 | 35.58739 | -6.21129 | 39128 ft | 518 kts | 54° |
| 2026-05-01 13:20 | 35.64410 | -6.09861 | 39132 ft | 518 kts | 54° |
| 2026-05-01 13:20 | 35.68200 | -6.02313 | 39134 ft | 517 kts | 54° |
| 2026-05-01 13:21 | 35.73739 | -5.90998 | 39134 ft | 520 kts | 58° |
| 2026-05-01 13:21 | 35.76970 | -5.82969 | 39135 ft | 522 kts | 60° |
| 2026-05-01 13:22 | 35.80080 | -5.74943 | 39130 ft | 521 kts | 60° |
| 2026-05-01 13:22 | 35.83219 | -5.66912 | 39131 ft | 522 kts | 60° |
| 2026-05-01 13:23 | 35.86415 | -5.58953 | 39129 ft | 521 kts | 59° |
| 2026-05-01 13:23 | 35.89665 | -5.50975 | 39364 ft | 522 kts | 58° |
| 2026-05-01 13:24 | 35.91294 | -5.47026 | 39625 ft | 520 kts | 58° |
| 2026-05-01 13:24 | 35.93137 | -5.43185 | 39823 ft | 513 kts | 47° |
| 2026-05-01 13:24 | 35.95375 | -5.39841 | 39994 ft | 507 kts | 42° |
| 2026-05-01 13:25 | 36.00120 | -5.33444 | 40131 ft | 506 kts | 41° |
| 2026-05-01 13:25 | 36.04857 | -5.27049 | 40131 ft | 507 kts | 41° |
| 2026-05-01 13:26 | 36.09566 | -5.20577 | 40134 ft | 507 kts | 42° |
| 2026-05-01 13:26 | 36.14246 | -5.14096 | 40140 ft | 506 kts | 42° |
| 2026-05-01 13:27 | 36.18934 | -5.07585 | 40141 ft | 507 kts | 42° |
| 2026-05-01 13:27 | 36.25944 | -4.97822 | 40131 ft | 507 kts | 42° |
| 2026-05-01 13:28 | 36.32971 | -4.88002 | 40127 ft | 506 kts | 42° |
| 2026-05-01 13:29 | 36.42272 | -4.74962 | 40127 ft | 506 kts | 41° |
| 2026-05-01 13:31 | 36.56165 | -4.55387 | 40134 ft | 503 kts | 42° |
| 2026-05-01 13:32 | 36.67681 | -4.39076 | 40139 ft | 502 kts | 41° |
| 2026-05-01 13:33 | 36.79163 | -4.22734 | 40148 ft | 504 kts | 42° |
| 2026-05-01 13:34 | 36.88335 | -4.09618 | 40158 ft | 503 kts | 42° |
| 2026-05-01 13:35 | 36.95196 | -3.99774 | 40181 ft | 501 kts | 42° |
| 2026-05-01 13:36 | 37.02034 | -3.89930 | 40204 ft | 499 kts | 42° |
| 2026-05-01 13:36 | 37.08808 | -3.80153 | 40205 ft | 499 kts | 43° |
| 2026-05-01 13:37 | 37.13346 | -3.73589 | 40213 ft | 497 kts | 43° |
| 2026-05-01 13:37 | 37.17863 | -3.67040 | 40217 ft | 497 kts | 43° |
| 2026-05-01 13:38 | 37.24604 | -3.57235 | 40211 ft | 496 kts | 42° |
| 2026-05-01 13:39 | 37.29098 | -3.50685 | 40209 ft | 495 kts | 43° |
| 2026-05-01 13:39 | 37.33569 | -3.44161 | 40213 ft | 495 kts | 43° |
| 2026-05-01 13:40 | 37.38068 | -3.37580 | 40212 ft | 495 kts | 42° |
| 2026-05-01 13:40 | 37.42523 | -3.31054 | 40211 ft | 496 kts | 43° |
| 2026-05-01 13:41 | 37.47010 | -3.24463 | 40205 ft | 496 kts | 43° |
| 2026-05-01 13:41 | 37.51472 | -3.17892 | 40205 ft | 494 kts | 43° |
| 2026-05-01 13:42 | 37.55904 | -3.11356 | 40208 ft | 494 kts | 43° |
| 2026-05-01 13:42 | 37.60348 | -3.04789 | 40204 ft | 493 kts | 43° |
| 2026-05-01 13:43 | 37.64809 | -2.98183 | 40208 ft | 492 kts | 43° |
| 2026-05-01 13:43 | 37.69206 | -2.91659 | 40207 ft | 492 kts | 43° |
| 2026-05-01 13:44 | 37.73631 | -2.85081 | 40205 ft | 491 kts | 43° |
| 2026-05-01 13:44 | 37.78028 | -2.78534 | 40203 ft | 490 kts | 43° |
| 2026-05-01 13:45 | 37.82417 | -2.71978 | 40208 ft | 489 kts | 44° |
| 2026-05-01 13:45 | 37.86783 | -2.65448 | 40212 ft | 488 kts | 44° |
| 2026-05-01 13:46 | 37.91158 | -2.58895 | 40222 ft | 488 kts | 44° |
| 2026-05-01 13:46 | 37.95514 | -2.52351 | 40223 ft | 487 kts | 44° |
| 2026-05-01 13:47 | 37.99881 | -2.45780 | 40228 ft | 487 kts | 44° |
| 2026-05-01 13:47 | 38.04226 | -2.39227 | 40221 ft | 485 kts | 44° |
| 2026-05-01 13:48 | 38.08584 | -2.32644 | 40217 ft | 485 kts | 44° |
| 2026-05-01 13:48 | 38.12901 | -2.26108 | 40217 ft | 485 kts | 45° |
| 2026-05-01 13:49 | 38.17220 | -2.19555 | 40213 ft | 485 kts | 45° |
| 2026-05-01 13:49 | 38.21538 | -2.12994 | 40209 ft | 485 kts | 45° |
| 2026-05-01 13:50 | 38.25861 | -2.06407 | 40205 ft | 485 kts | 45° |
| 2026-05-01 13:50 | 38.30170 | -1.99834 | 40203 ft | 486 kts | 45° |
| 2026-05-01 13:51 | 38.34493 | -1.93225 | 40200 ft | 486 kts | 45° |
| 2026-05-01 13:51 | 38.38781 | -1.86647 | 40200 ft | 485 kts | 45° |
| 2026-05-01 13:52 | 38.43087 | -1.80038 | 40191 ft | 485 kts | 45° |
| 2026-05-01 13:52 | 38.47387 | -1.73421 | 40186 ft | 484 kts | 46° |
| 2026-05-01 13:53 | 38.51648 | -1.66851 | 40187 ft | 484 kts | 46° |
| 2026-05-01 13:53 | 38.58078 | -1.56910 | 40191 ft | 484 kts | 46° |
| 2026-05-01 13:54 | 38.62344 | -1.50299 | 40195 ft | 484 kts | 46° |
| 2026-05-01 13:54 | 38.66615 | -1.43668 | 40194 ft | 483 kts | 46° |
| 2026-05-01 13:55 | 38.70851 | -1.37075 | 40190 ft | 482 kts | 46° |
| 2026-05-01 13:55 | 38.75049 | -1.30399 | 40192 ft | 483 kts | 49° |
| 2026-05-01 13:56 | 38.79153 | -1.23557 | 40190 ft | 483 kts | 49° |
| 2026-05-01 13:56 | 38.83224 | -1.16768 | 40192 ft | 484 kts | 49° |
| 2026-05-01 13:57 | 38.87306 | -1.09968 | 40197 ft | 483 kts | 49° |
| 2026-05-01 13:57 | 38.91395 | -1.03158 | 40194 ft | 481 kts | 49° |
| 2026-05-01 13:58 | 38.95476 | -0.96346 | 40194 ft | 481 kts | 49° |
| 2026-05-01 13:58 | 38.99526 | -0.89580 | 40199 ft | 481 kts | 49° |
| 2026-05-01 13:59 | 39.03594 | -0.82787 | 40193 ft | 480 kts | 47° |
| 2026-05-01 13:59 | 39.08013 | -0.76402 | 40199 ft | 477 kts | 41° |
| 2026-05-01 14:00 | 39.12942 | -0.70682 | 40201 ft | 474 kts | 36° |
| 2026-05-01 14:00 | 39.18018 | -0.65315 | 40198 ft | 474 kts | 36° |
| 2026-05-01 14:01 | 39.23094 | -0.59937 | 40193 ft | 474 kts | 36° |
| 2026-05-01 14:01 | 39.28188 | -0.54520 | 40190 ft | 473 kts | 34° |
| 2026-05-01 14:02 | 39.33405 | -0.49389 | 40190 ft | 472 kts | 33° |
| 2026-05-01 14:02 | 39.38645 | -0.44309 | 40192 ft | 472 kts | 33° |
| 2026-05-01 14:03 | 39.43893 | -0.39209 | 40197 ft | 472 kts | 33° |
| 2026-05-01 14:03 | 39.49133 | -0.34100 | 40197 ft | 472 kts | 34° |
| 2026-05-01 14:04 | 39.54377 | -0.28974 | 40195 ft | 472 kts | 34° |
| 2026-05-01 14:04 | 39.59586 | -0.23872 | 40191 ft | 471 kts | 34° |
| 2026-05-01 14:05 | 39.64829 | -0.18731 | 40187 ft | 472 kts | 34° |
| 2026-05-01 14:05 | 39.70043 | -0.13608 | 40180 ft | 471 kts | 34° |
| 2026-05-01 14:06 | 39.75250 | -0.08482 | 40173 ft | 473 kts | 34° |
| 2026-05-01 14:06 | 39.80470 | -0.03307 | 40169 ft | 473 kts | 36° |
| 2026-05-01 14:07 | 39.85411 | 0.02406 | 40167 ft | 476 kts | 42° |
| 2026-05-01 14:08 | 39.92224 | 0.11802 | 40167 ft | 476 kts | 44° |
| 2026-05-01 14:08 | 39.96718 | 0.18080 | 40168 ft | 477 kts | 44° |
| 2026-05-01 14:09 | 40.01244 | 0.24395 | 40166 ft | 477 kts | 44° |
| 2026-05-01 14:09 | 40.05756 | 0.30701 | 40170 ft | 476 kts | 44° |
| 2026-05-01 14:10 | 40.10245 | 0.36984 | 40170 ft | 475 kts | 44° |
| 2026-05-01 14:10 | 40.14763 | 0.43318 | 40169 ft | 476 kts | 44° |
| 2026-05-01 14:11 | 40.19262 | 0.49637 | 40175 ft | 476 kts | 44° |
| 2026-05-01 14:11 | 40.26015 | 0.59147 | 40175 ft | 477 kts | 44° |
| 2026-05-01 14:12 | 40.30517 | 0.65516 | 40184 ft | 477 kts | 45° |
| 2026-05-01 14:12 | 40.35055 | 0.71948 | 40182 ft | 477 kts | 45° |
| 2026-05-01 14:13 | 40.39562 | 0.78343 | 40185 ft | 477 kts | 45° |
| 2026-05-01 14:13 | 40.44051 | 0.84725 | 40182 ft | 477 kts | 45° |
| 2026-05-01 14:14 | 40.48535 | 0.91117 | 40192 ft | 477 kts | 45° |
| 2026-05-01 14:14 | 40.53030 | 0.97536 | 40190 ft | 477 kts | 46° |
| 2026-05-01 14:15 | 40.57489 | 1.03923 | 40190 ft | 477 kts | 46° |
| 2026-05-01 14:15 | 40.61961 | 1.10349 | 40208 ft | 477 kts | 46° |
| 2026-05-01 14:16 | 40.66440 | 1.16796 | 40201 ft | 478 kts | 46° |
| 2026-05-01 14:16 | 40.70924 | 1.23265 | 40202 ft | 479 kts | 46° |
| 2026-05-01 14:17 | 40.75385 | 1.29710 | 40204 ft | 478 kts | 46° |
| 2026-05-01 14:17 | 40.79882 | 1.36213 | 40202 ft | 478 kts | 46° |
| 2026-05-01 14:18 | 40.84329 | 1.42661 | 40201 ft | 478 kts | 46° |
| 2026-05-01 14:18 | 40.88797 | 1.49161 | 40206 ft | 477 kts | 46° |
| 2026-05-01 14:19 | 40.93250 | 1.55656 | 40207 ft | 478 kts | 46° |
| 2026-05-01 14:19 | 40.97696 | 1.62146 | 40206 ft | 478 kts | 46° |
| 2026-05-01 14:20 | 41.04393 | 1.71950 | 40199 ft | 479 kts | 47° |
| 2026-05-01 14:21 | 41.08819 | 1.78453 | 40201 ft | 478 kts | 47° |
| 2026-05-01 14:21 | 41.13273 | 1.85007 | 40206 ft | 478 kts | 47° |
| 2026-05-01 14:22 | 41.19925 | 1.94820 | 40214 ft | 478 kts | 47° |
| 2026-05-01 14:22 | 41.24367 | 2.01389 | 40220 ft | 477 kts | 47° |
| 2026-05-01 14:23 | 41.28551 | 2.08179 | 40231 ft | 479 kts | 53° |
| 2026-05-01 14:23 | 41.32158 | 2.15596 | 40233 ft | 480 kts | 60° |
| 2026-05-01 14:24 | 41.35138 | 2.23487 | 40233 ft | 481 kts | 64° |
| 2026-05-01 14:24 | 41.37930 | 2.31589 | 40233 ft | 481 kts | 65° |
| 2026-05-01 14:25 | 41.40699 | 2.39635 | 40232 ft | 481 kts | 65° |
| 2026-05-01 14:25 | 41.43489 | 2.47733 | 40231 ft | 481 kts | 65° |
| 2026-05-01 14:26 | 41.47643 | 2.59818 | 40226 ft | 481 kts | 65° |
| 2026-05-01 14:27 | 41.50418 | 2.67919 | 40220 ft | 480 kts | 65° |
| 2026-05-01 14:27 | 41.53182 | 2.76006 | 40222 ft | 481 kts | 65° |
| 2026-05-01 14:28 | 41.57334 | 2.88196 | 40227 ft | 482 kts | 65° |
| 2026-05-01 14:28 | 41.60094 | 2.96324 | 40230 ft | 482 kts | 65° |
| 2026-05-01 14:29 | 41.62848 | 3.04465 | 40231 ft | 482 kts | 65° |
| 2026-05-01 14:30 | 41.68325 | 3.20724 | 40237 ft | 481 kts | 65° |
| 2026-05-01 14:31 | 41.72424 | 3.32972 | 40231 ft | 482 kts | 65° |
| 2026-05-01 14:31 | 41.75145 | 3.41142 | 40233 ft | 482 kts | 65° |
| 2026-05-01 14:32 | 41.77865 | 3.49333 | 40233 ft | 482 kts | 65° |
| 2026-05-01 14:32 | 41.80575 | 3.57508 | 40229 ft | 482 kts | 65° |
| 2026-05-01 14:33 | 41.83282 | 3.65694 | 40238 ft | 482 kts | 65° |
| 2026-05-01 14:33 | 41.85984 | 3.73886 | 40233 ft | 482 kts | 65° |
| 2026-05-01 14:34 | 41.88667 | 3.82046 | 40239 ft | 481 kts | 65° |
| 2026-05-01 14:34 | 41.91358 | 3.90246 | 40236 ft | 481 kts | 65° |
| 2026-05-01 14:35 | 41.94027 | 3.98422 | 40237 ft | 481 kts | 65° |
| 2026-05-01 14:35 | 41.96713 | 4.06678 | 40233 ft | 482 kts | 65° |
| 2026-05-01 14:36 | 41.99373 | 4.14875 | 40234 ft | 482 kts | 65° |
| 2026-05-01 14:36 | 42.02052 | 4.23140 | 40236 ft | 482 kts | 65° |
| 2026-05-01 14:37 | 42.04756 | 4.31361 | 40238 ft | 480 kts | 62° |
| 2026-05-01 14:37 | 42.08053 | 4.39100 | 40247 ft | 478 kts | 54° |
| 2026-05-01 14:38 | 42.12098 | 4.46097 | 40253 ft | 475 kts | 45° |
| 2026-05-01 14:38 | 42.16794 | 4.52278 | 40257 ft | 472 kts | 39° |
| 2026-05-01 14:39 | 42.21701 | 4.58138 | 40257 ft | 471 kts | 39° |
| 2026-05-01 14:39 | 42.26597 | 4.64003 | 40257 ft | 471 kts | 39° |
| 2026-05-01 14:40 | 42.31468 | 4.69873 | 40263 ft | 471 kts | 40° |
| 2026-05-01 14:40 | 42.36330 | 4.75758 | 40258 ft | 471 kts | 40° |
| 2026-05-01 14:41 | 42.41224 | 4.81693 | 40267 ft | 471 kts | 40° |
| 2026-05-01 14:41 | 42.46091 | 4.87615 | 40271 ft | 470 kts | 40° |
| 2026-05-01 14:42 | 42.51026 | 4.93283 | 40274 ft | 468 kts | 34° |
| 2026-05-01 14:42 | 42.56520 | 4.98004 | 40277 ft | 465 kts | 26° |
| 2026-05-01 14:43 | 42.62396 | 5.01498 | 40265 ft | 462 kts | 17° |
| 2026-05-01 14:43 | 42.68568 | 5.03824 | 40276 ft | 460 kts | 11° |
| 2026-05-01 14:44 | 42.74793 | 5.05735 | 40179 ft | 462 kts | 11° |
| 2026-05-01 14:44 | 42.81051 | 5.07672 | 38929 ft | 461 kts | 11° |
| 2026-05-01 14:44 | 42.84161 | 5.08648 | 38275 ft | 460 kts | 11° |
| 2026-05-01 14:45 | 42.87270 | 5.09627 | 37627 ft | 459 kts | 11° |
| 2026-05-01 14:45 | 42.93463 | 5.11554 | 36382 ft | 456 kts | 9° |
| 2026-05-01 14:45 | 42.96551 | 5.12319 | 35897 ft | 454 kts | 6° |
| 2026-05-01 14:46 | 42.99673 | 5.12964 | 35405 ft | 453 kts | 5° |
| 2026-05-01 14:46 | 43.05928 | 5.14179 | 34429 ft | 456 kts | 5° |
| 2026-05-01 14:46 | 43.09021 | 5.14778 | 33899 ft | 457 kts | 5° |
| 2026-05-01 14:47 | 43.12209 | 5.15401 | 33352 ft | 457 kts | 5° |
| 2026-05-01 14:47 | 43.15315 | 5.16010 | 32819 ft | 457 kts | 5° |
| 2026-05-01 14:47 | 43.18475 | 5.16632 | 32278 ft | 456 kts | 6° |
| 2026-05-01 14:48 | 43.24715 | 5.17865 | 31214 ft | 456 kts | 6° |
| 2026-05-01 14:48 | 43.27853 | 5.18486 | 30679 ft | 455 kts | 6° |
| 2026-05-01 14:48 | 43.34091 | 5.19721 | 29633 ft | 456 kts | 6° |
| 2026-05-01 14:49 | 43.40362 | 5.21114 | 28575 ft | 456 kts | 15° |
| 2026-05-01 14:49 | 43.45324 | 5.26221 | 27524 ft | 458 kts | 57° |
| 2026-05-01 14:50 | 43.47303 | 5.32936 | 26693 ft | 456 kts | 70° |
| 2026-05-01 14:50 | 43.49751 | 5.42453 | 25343 ft | 449 kts | 69° |
| 2026-05-01 14:51 | 43.50870 | 5.46458 | 24801 ft | 445 kts | 69° |
| 2026-05-01 14:51 | 43.53074 | 5.54296 | 24253 ft | 438 kts | 68° |
| 2026-05-01 14:52 | 43.55260 | 5.62073 | 23272 ft | 432 kts | 68° |
| 2026-05-01 14:52 | 43.56230 | 5.65920 | 22730 ft | 429 kts | 74° |
| 2026-05-01 14:52 | 43.57238 | 5.73935 | 21662 ft | 423 kts | 84° |
| 2026-05-01 14:53 | 43.57505 | 5.77942 | 21139 ft | 420 kts | 85° |
| 2026-05-01 14:53 | 43.57754 | 5.81906 | 20619 ft | 416 kts | 85° |
| 2026-05-01 14:53 | 43.58006 | 5.85877 | 20095 ft | 413 kts | 84° |
| 2026-05-01 14:53 | 43.58257 | 5.89770 | 19572 ft | 409 kts | 84° |
| 2026-05-01 14:54 | 43.58508 | 5.93639 | 18956 ft | 394 kts | 84° |
| 2026-05-01 14:54 | 43.58744 | 5.97276 | 18444 ft | 383 kts | 84° |
| 2026-05-01 14:54 | 43.58981 | 6.00913 | 17926 ft | 380 kts | 84° |
| 2026-05-01 14:54 | 43.59214 | 6.04532 | 17434 ft | 378 kts | 84° |
| 2026-05-01 14:55 | 43.59366 | 6.08103 | 16914 ft | 374 kts | 91° |
| 2026-05-01 14:55 | 43.59040 | 6.11643 | 16418 ft | 372 kts | 102° |
| 2026-05-01 14:55 | 43.58261 | 6.15034 | 15922 ft | 373 kts | 109° |
| 2026-05-01 14:55 | 43.57340 | 6.18366 | 15395 ft | 372 kts | 110° |
| 2026-05-01 14:56 | 43.56424 | 6.21623 | 14859 ft | 363 kts | 110° |
| 2026-05-01 14:56 | 43.55511 | 6.24884 | 14351 ft | 361 kts | 109° |
| 2026-05-01 14:56 | 43.54629 | 6.28056 | 13846 ft | 352 kts | 109° |
| 2026-05-01 14:56 | 43.53773 | 6.31150 | 13347 ft | 344 kts | 109° |
| 2026-05-01 14:57 | 43.52931 | 6.34197 | 12843 ft | 337 kts | 109° |
| 2026-05-01 14:57 | 43.51300 | 6.40090 | 11924 ft | 323 kts | 109° |
| 2026-05-01 14:57 | 43.50427 | 6.42853 | 11647 ft | 309 kts | 118° |
| 2026-05-01 14:58 | 43.49195 | 6.45199 | 11396 ft | 297 kts | 130° |
| 2026-05-01 14:58 | 43.47805 | 6.47237 | 11058 ft | 289 kts | 131° |
| 2026-05-01 14:58 | 43.46417 | 6.49204 | 10564 ft | 287 kts | 132° |
| 2026-05-01 14:58 | 43.45044 | 6.51154 | 10059 ft | 286 kts | 131° |
| 2026-05-01 14:59 | 43.43667 | 6.53121 | 9607 ft | 285 kts | 131° |
| 2026-05-01 14:59 | 43.42308 | 6.55070 | 9349 ft | 283 kts | 131° |
| 2026-05-01 14:59 | 43.40944 | 6.57031 | 9071 ft | 282 kts | 131° |
| 2026-05-01 14:59 | 43.39596 | 6.58972 | 8878 ft | 278 kts | 130° |
| 2026-05-01 15:00 | 43.38355 | 6.63638 | 8598 ft | 260 kts | 88° |
| 2026-05-01 15:00 | 43.38384 | 6.66129 | 8357 ft | 259 kts | 88° |
| 2026-05-01 15:00 | 43.38415 | 6.68583 | 7984 ft | 258 kts | 89° |
| 2026-05-01 15:01 | 43.38433 | 6.71045 | 7633 ft | 257 kts | 89° |
| 2026-05-01 15:01 | 43.38440 | 6.73462 | 7294 ft | 255 kts | 89° |
| 2026-05-01 15:01 | 43.38441 | 6.75908 | 6939 ft | 253 kts | 89° |
| 2026-05-01 15:01 | 43.38439 | 6.78306 | 6586 ft | 251 kts | 89° |
| 2026-05-01 15:02 | 43.38435 | 6.80694 | 6227 ft | 250 kts | 90° |
| 2026-05-01 15:02 | 43.38438 | 6.82278 | 5993 ft | 248 kts | 86° |
| 2026-05-01 15:02 | 43.39244 | 6.85116 | 5495 ft | 245 kts | 46° |
| 2026-05-01 15:02 | 43.40468 | 6.86712 | 5336 ft | 236 kts | 44° |
| 2026-05-01 15:03 | 43.41631 | 6.88234 | 5174 ft | 228 kts | 44° |
| 2026-05-01 15:03 | 43.42749 | 6.89724 | 4996 ft | 220 kts | 45° |
| 2026-05-01 15:03 | 43.43837 | 6.91188 | 4723 ft | 217 kts | 45° |
| 2026-05-01 15:03 | 43.44891 | 6.92618 | 4573 ft | 209 kts | 45° |
| 2026-05-01 15:04 | 43.45909 | 6.94009 | 4449 ft | 202 kts | 45° |
| 2026-05-01 15:04 | 43.46886 | 6.95348 | 4293 ft | 196 kts | 45° |
| 2026-05-01 15:04 | 43.47850 | 6.96671 | 4054 ft | 194 kts | 45° |
| 2026-05-01 15:04 | 43.48786 | 6.97956 | 4005 ft | 181 kts | 45° |
| 2026-05-01 15:05 | 43.49669 | 6.99169 | 3994 ft | 175 kts | 45° |
| 2026-05-01 15:05 | 43.50528 | 7.00349 | 3942 ft | 172 kts | 45° |
| 2026-05-01 15:05 | 43.51354 | 7.01483 | 3735 ft | 164 kts | 45° |
| 2026-05-01 15:05 | 43.52142 | 7.02565 | 3534 ft | 159 kts | 45° |
| 2026-05-01 15:06 | 43.52926 | 7.03643 | 3328 ft | 159 kts | 45° |
| 2026-05-01 15:06 | 43.53702 | 7.04707 | 3121 ft | 158 kts | 45° |
| 2026-05-01 15:06 | 43.54489 | 7.05786 | 2910 ft | 158 kts | 44° |
| 2026-05-01 15:06 | 43.55264 | 7.06849 | 2709 ft | 158 kts | 44° |
| 2026-05-01 15:07 | 43.56036 | 7.07907 | 2509 ft | 157 kts | 44° |
| 2026-05-01 15:07 | 43.56810 | 7.08966 | 2308 ft | 157 kts | 44° |
| 2026-05-01 15:07 | 43.57583 | 7.10025 | 2106 ft | 156 kts | 44° |
| 2026-05-01 15:07 | 43.58351 | 7.11077 | 1900 ft | 155 kts | 44° |
| 2026-05-01 15:08 | 43.59123 | 7.12133 | 1693 ft | 155 kts | 44° |
| 2026-05-01 15:08 | 43.59883 | 7.13173 | 1489 ft | 154 kts | 44° |
| 2026-05-01 15:08 | 43.60647 | 7.14219 | 1285 ft | 154 kts | 44° |
| 2026-05-01 15:08 | 43.61404 | 7.15255 | 1083 ft | 153 kts | 44° |
| 2026-05-01 15:09 | 43.62169 | 7.16301 | 879 ft | 153 kts | 44° |
| 2026-05-01 15:09 | 43.62913 | 7.17320 | 681 ft | 152 kts | 44° |
| 2026-05-01 15:09 | 43.63666 | 7.18348 | 482 ft | 152 kts | 44° |
| 2026-05-01 15:09 | 43.64413 | 7.19374 | 282 ft | 151 kts | 43° |
| 2026-05-01 15:10 | 43.65164 | 7.20388 | 86 ft | 148 kts | 42° |
| 2026-05-01 15:10 | 43.66340 | 7.21995 | 40 ft | 71 kts | 45° |
| 2026-05-01 15:10 | 43.66583 | 7.22329 | 39 ft | 31 kts | 44° |
| 2026-05-01 15:11 | 43.66694 | 7.22479 | 41 ft | 11 kts | 34° |
| 2026-05-01 15:11 | 43.66792 | 7.22426 | 44 ft | 6 kts | 314° |
| 2026-05-01 15:11 | 43.66819 | 7.22381 | 45 ft | 6 kts | 292° |
| 2026-05-01 15:12 | 43.66806 | 7.22316 | 45 ft | 9 kts | 229° |
| 2026-05-01 15:12 | 43.66687 | 7.22151 | 43 ft | 14 kts | 225° |
| 2026-05-01 15:12 | 43.66618 | 7.22056 | 44 ft | 13 kts | 225° |
| 2026-05-01 15:13 | 43.66404 | 7.21765 | 48 ft | 10 kts | 225° |
| 2026-05-01 15:14 | 43.66323 | 7.21646 | 49 ft | 5 kts | 244° |
| 2026-05-01 15:14 | 43.66326 | 7.21605 | 50 ft | 3 kts | 310° |
| 2026-05-01 15:14 | 43.66362 | 7.21552 | 52 ft | 3 kts | 313° |
| 2026-05-01 15:15 | 43.66383 | 7.21506 | 53 ft | 2 kts | 268° |
| 2026-05-01 15:15 | 43.66360 | 7.21453 | 54 ft | 4 kts | 248° |
| 2026-05-01 15:16 | 43.66346 | 7.21374 | 55 ft | 3 kts | 262° |
| 2026-05-01 15:16 | 43.66368 | 7.21343 | 56 ft | 3 kts | 345° |
| 2026-05-01 15:17 | 43.66407 | 7.21333 | 56 ft | 1 kts | 350° |
| 2026-05-01 15:18 | 43.66419 | 7.21330 | 56 ft | 0 kts | 350° |